sensor_id;sensor_type;location;lat;lon;timestamp;pressure;altitude;pressure_sealevel;temperature;humidity
47220;BME280;32961;51.936;4.788;2023-05-24T00:02:21;102507.00;;;10.82;73.34
47220;BME280;32961;51.936;4.788;2023-05-24T00:04:52;102504.47;;;10.79;73.40
47220;BME280;32961;51.936;4.788;2023-05-24T00:07:20;102503.69;;;10.76;73.57
47220;BME280;32961;51.936;4.788;2023-05-24T00:09:49;102499.25;;;10.75;73.62
47220;BME280;32961;51.936;4.788;2023-05-24T00:12:17;102476.94;;;10.70;73.61
47220;BME280;32961;51.936;4.788;2023-05-24T00:14:45;102487.72;;;10.72;73.55
47220;BME280;32961;51.936;4.788;2023-05-24T00:17:13;102480.66;;;10.69;73.41
47220;BME280;32961;51.936;4.788;2023-05-24T00:19:41;102475.72;;;10.62;73.81
47220;BME280;32961;51.936;4.788;2023-05-24T00:22:09;102485.72;;;10.61;73.77
47220;BME280;32961;51.936;4.788;2023-05-24T00:24:37;102486.69;;;10.60;74.08
47220;BME280;32961;51.936;4.788;2023-05-24T00:27:06;102501.47;;;10.56;74.33
47220;BME280;32961;51.936;4.788;2023-05-24T00:29:34;102491.03;;;10.50;74.83
47220;BME280;32961;51.936;4.788;2023-05-24T00:32:02;102490.13;;;10.49;75.02
47220;BME280;32961;51.936;4.788;2023-05-24T00:34:30;102485.00;;;10.44;75.00
47220;BME280;32961;51.936;4.788;2023-05-24T00:36:58;102491.44;;;10.43;75.11
47220;BME280;32961;51.936;4.788;2023-05-24T00:39:26;102485.13;;;10.43;75.42
47220;BME280;32961;51.936;4.788;2023-05-24T00:41:54;102491.53;;;10.42;75.19
47220;BME280;32961;51.936;4.788;2023-05-24T00:44:23;102474.66;;;10.37;74.73
47220;BME280;32961;51.936;4.788;2023-05-24T00:46:51;102472.84;;;10.37;74.87
47220;BME280;32961;51.936;4.788;2023-05-24T00:49:19;102473.09;;;10.33;75.14
47220;BME280;32961;51.936;4.788;2023-05-24T00:51:49;102474.19;;;10.30;74.88
47220;BME280;32961;51.936;4.788;2023-05-24T00:54:18;102476.97;;;10.28;75.54
47220;BME280;32961;51.936;4.788;2023-05-24T00:56:46;102468.50;;;10.20;75.68
47220;BME280;32961;51.936;4.788;2023-05-24T00:59:14;102480.22;;;10.21;76.15
47220;BME280;32961;51.936;4.788;2023-05-24T01:01:44;102474.91;;;10.19;76.49
47220;BME280;32961;51.936;4.788;2023-05-24T01:04:13;102478.59;;;10.18;76.48
47220;BME280;32961;51.936;4.788;2023-05-24T01:06:52;102472.47;;;10.15;76.60
47220;BME280;32961;51.936;4.788;2023-05-24T01:09:29;102477.13;;;10.12;77.00
47220;BME280;32961;51.936;4.788;2023-05-24T01:12:07;102478.22;;;10.10;77.18
47220;BME280;32961;51.936;4.788;2023-05-24T01:14:44;102469.50;;;10.05;77.63
47220;BME280;32961;51.936;4.788;2023-05-24T01:17:20;102479.59;;;10.03;77.61
47220;BME280;32961;51.936;4.788;2023-05-24T01:19:55;102484.25;;;10.01;78.37
47220;BME280;32961;51.936;4.788;2023-05-24T01:22:57;102474.66;;;9.95;78.70
47220;BME280;32961;51.936;4.788;2023-05-24T01:25:40;102478.56;;;9.91;78.95
47220;BME280;32961;51.936;4.788;2023-05-24T01:28:15;102481.56;;;9.86;79.49
47220;BME280;32961;51.936;4.788;2023-05-24T01:30:44;102468.69;;;9.75;79.25
47220;BME280;32961;51.936;4.788;2023-05-24T01:33:12;102485.53;;;9.80;79.41
47220;BME280;32961;51.936;4.788;2023-05-24T01:35:40;102491.94;;;9.79;79.71
47220;BME280;32961;51.936;4.788;2023-05-24T01:38:08;102483.13;;;9.76;80.16
47220;BME280;32961;51.936;4.788;2023-05-24T01:40:38;102480.50;;;9.74;80.14
47220;BME280;32961;51.936;4.788;2023-05-24T01:43:15;102475.59;;;9.67;80.55
47220;BME280;32961;51.936;4.788;2023-05-24T01:45:52;102479.44;;;9.62;80.57
47220;BME280;32961;51.936;4.788;2023-05-24T01:48:30;102479.66;;;9.59;80.68
47220;BME280;32961;51.936;4.788;2023-05-24T01:50:59;102478.97;;;9.56;80.82
47220;BME280;32961;51.936;4.788;2023-05-24T01:53:31;102482.66;;;9.55;81.21
47220;BME280;32961;51.936;4.788;2023-05-24T01:56:01;102475.59;;;9.52;81.18
47220;BME280;32961;51.936;4.788;2023-05-24T01:58:33;102479.16;;;9.53;81.23
47220;BME280;32961;51.936;4.788;2023-05-24T02:01:02;102475.69;;;9.51;81.73
47220;BME280;32961;51.936;4.788;2023-05-24T02:03:32;102480.91;;;9.54;81.82
47220;BME280;32961;51.936;4.788;2023-05-24T02:06:01;102475.50;;;9.54;81.74
47220;BME280;32961;51.936;4.788;2023-05-24T02:08:28;102469.09;;;9.55;81.41
47220;BME280;32961;51.936;4.788;2023-05-24T02:10:56;102471.81;;;9.55;81.48
47220;BME280;32961;51.936;4.788;2023-05-24T02:13:24;102471.81;;;9.55;81.55
47220;BME280;32961;51.936;4.788;2023-05-24T02:15:53;102471.91;;;9.53;81.03
47220;BME280;32961;51.936;4.788;2023-05-24T02:18:21;102472.88;;;9.52;81.05
47220;BME280;32961;51.936;4.788;2023-05-24T02:20:49;102473.75;;;9.53;81.68
47220;BME280;32961;51.936;4.788;2023-05-24T02:23:17;102469.38;;;9.50;81.83
47220;BME280;32961;51.936;4.788;2023-05-24T02:25:45;102467.75;;;9.47;81.23
47220;BME280;32961;51.936;4.788;2023-05-24T02:28:13;102458.91;;;9.44;81.39
47220;BME280;32961;51.936;4.788;2023-05-24T02:30:41;102463.50;;;9.43;81.26
47220;BME280;32961;51.936;4.788;2023-05-24T02:33:12;102470.00;;;9.41;81.79
47220;BME280;32961;51.936;4.788;2023-05-24T02:35:42;102475.59;;;9.38;81.18
47220;BME280;32961;51.936;4.788;2023-05-24T02:38:10;102472.13;;;9.36;81.45
47220;BME280;32961;51.936;4.788;2023-05-24T02:40:38;102464.25;;;9.31;82.15
47220;BME280;32961;51.936;4.788;2023-05-24T02:43:06;102479.59;;;9.32;81.77
47220;BME280;32961;51.936;4.788;2023-05-24T02:45:35;102471.63;;;9.29;82.61
47220;BME280;32961;51.936;4.788;2023-05-24T02:48:03;102475.22;;;9.29;82.48
47220;BME280;32961;51.936;4.788;2023-05-24T02:50:32;102471.63;;;9.29;82.48
47220;BME280;32961;51.936;4.788;2023-05-24T02:53:00;102477.94;;;9.29;82.16
47220;BME280;32961;51.936;4.788;2023-05-24T02:55:28;102476.19;;;9.28;81.98
47220;BME280;32961;51.936;4.788;2023-05-24T02:57:57;102478.09;;;9.26;82.21
47220;BME280;32961;51.936;4.788;2023-05-24T03:00:26;102487.91;;;9.29;82.19
47220;BME280;32961;51.936;4.788;2023-05-24T03:02:54;102477.03;;;9.29;81.50
47220;BME280;32961;51.936;4.788;2023-05-24T03:05:26;102481.69;;;9.27;81.62
47220;BME280;32961;51.936;4.788;2023-05-24T03:07:55;102469.88;;;9.28;81.26
47220;BME280;32961;51.936;4.788;2023-05-24T03:10:23;102478.09;;;9.26;81.42
47220;BME280;32961;51.936;4.788;2023-05-24T03:12:51;102478.09;;;9.26;81.06
47220;BME280;32961;51.936;4.788;2023-05-24T03:15:19;102478.22;;;9.25;81.09
47220;BME280;32961;51.936;4.788;2023-05-24T03:17:47;102475.69;;;9.22;80.85
47220;BME280;32961;51.936;4.788;2023-05-24T03:20:15;102476.66;;;9.21;80.83
47220;BME280;32961;51.936;4.788;2023-05-24T03:22:44;102472.22;;;9.20;81.00
47220;BME280;32961;51.936;4.788;2023-05-24T03:25:13;102457.06;;;9.15;81.14
47220;BME280;32961;51.936;4.788;2023-05-24T03:27:41;102457.34;;;9.11;81.46
47220;BME280;32961;51.936;4.788;2023-05-24T03:30:09;102462.59;;;9.14;80.94
47220;BME280;32961;51.936;4.788;2023-05-24T03:32:37;102454.66;;;9.11;81.01
47220;BME280;32961;51.936;4.788;2023-05-24T03:35:05;102451.06;;;9.10;81.87
47220;BME280;32961;51.936;4.788;2023-05-24T03:37:33;102454.97;;;9.06;82.22
47220;BME280;32961;51.936;4.788;2023-05-24T03:40:01;102447.97;;;9.02;83.21
47220;BME280;32961;51.936;4.788;2023-05-24T03:42:31;102443.44;;;9.03;83.74
47220;BME280;32961;51.936;4.788;2023-05-24T03:44:59;102451.63;;;9.01;84.25
47220;BME280;32961;51.936;4.788;2023-05-24T03:47:27;102444.50;;;9.00;84.17
47220;BME280;32961;51.936;4.788;2023-05-24T03:49:54;102441.84;;;8.98;84.72
47220;BME280;32961;51.936;4.788;2023-05-24T03:52:23;102460.75;;;9.00;84.98
47220;BME280;32961;51.936;4.788;2023-05-24T03:54:51;102453.47;;;9.01;85.02
47220;BME280;32961;51.936;4.788;2023-05-24T03:57:19;102459.88;;;8.99;85.22
47220;BME280;32961;51.936;4.788;2023-05-24T03:59:48;102465.97;;;9.03;85.53
47220;BME280;32961;51.936;4.788;2023-05-24T04:02:16;102450.09;;;8.97;85.31
47220;BME280;32961;51.936;4.788;2023-05-24T04:04:44;102469.47;;;9.05;84.81
47220;BME280;32961;51.936;4.788;2023-05-24T04:07:12;102464.06;;;9.05;85.38
47220;BME280;32961;51.936;4.788;2023-05-24T04:09:41;102459.50;;;9.06;84.93
47220;BME280;32961;51.936;4.788;2023-05-24T04:12:09;102475.59;;;9.09;85.02
47220;BME280;32961;51.936;4.788;2023-05-24T04:14:38;102471.97;;;9.08;84.99
47220;BME280;32961;51.936;4.788;2023-05-24T04:17:07;102463.94;;;9.07;84.49
47220;BME280;32961;51.936;4.788;2023-05-24T04:19:35;102476.34;;;9.11;84.86
47220;BME280;32961;51.936;4.788;2023-05-24T04:22:03;102465.59;;;9.09;85.64
47220;BME280;32961;51.936;4.788;2023-05-24T04:24:31;102469.94;;;9.12;85.84
47220;BME280;32961;51.936;4.788;2023-05-24T04:26:59;102470.91;;;9.11;86.19
47220;BME280;32961;51.936;4.788;2023-05-24T04:29:27;102476.44;;;9.09;87.27
47220;BME280;32961;51.936;4.788;2023-05-24T04:31:55;102476.44;;;9.09;87.33
47220;BME280;32961;51.936;4.788;2023-05-24T04:34:24;102470.34;;;9.06;87.61
47220;BME280;32961;51.936;4.788;2023-05-24T04:36:55;102481.97;;;9.08;88.49
47220;BME280;32961;51.936;4.788;2023-05-24T04:39:23;102475.66;;;9.07;89.59
47220;BME280;32961;51.936;4.788;2023-05-24T04:41:51;102474.78;;;9.07;89.34
47220;BME280;32961;51.936;4.788;2023-05-24T04:44:20;102480.03;;;9.10;89.30
47220;BME280;32961;51.936;4.788;2023-05-24T04:46:48;102460.28;;;9.08;89.70
47220;BME280;32961;51.936;4.788;2023-05-24T04:49:16;102460.84;;;9.13;89.52
47220;BME280;32961;51.936;4.788;2023-05-24T04:51:46;102459.91;;;9.14;90.11
47220;BME280;32961;51.936;4.788;2023-05-24T04:54:14;102467.66;;;9.20;91.08
47220;BME280;32961;51.936;4.788;2023-05-24T04:56:43;102463.28;;;9.18;91.76
47220;BME280;32961;51.936;4.788;2023-05-24T04:59:11;102461.25;;;9.21;91.54
47220;BME280;32961;51.936;4.788;2023-05-24T05:01:39;102453.81;;;9.25;92.18
47220;BME280;32961;51.936;4.788;2023-05-24T05:04:07;102454.56;;;9.27;92.68
47220;BME280;32961;51.936;4.788;2023-05-24T05:06:35;102462.31;;;9.33;92.07
47220;BME280;32961;51.936;4.788;2023-05-24T05:09:08;102451.47;;;9.33;92.60
47220;BME280;32961;51.936;4.788;2023-05-24T05:11:37;102459.25;;;9.39;93.19
47220;BME280;32961;51.936;4.788;2023-05-24T05:14:05;102462.53;;;9.44;92.43
47220;BME280;32961;51.936;4.788;2023-05-24T05:16:35;102463.88;;;9.52;92.95
47220;BME280;32961;51.936;4.788;2023-05-24T05:19:03;102461.84;;;9.55;93.25
47220;BME280;32961;51.936;4.788;2023-05-24T05:21:32;102455.25;;;9.59;93.45
47220;BME280;32961;51.936;4.788;2023-05-24T05:24:00;102454.72;;;9.67;93.82
47220;BME280;32961;51.936;4.788;2023-05-24T05:26:30;102458.81;;;9.74;93.61
47220;BME280;32961;51.936;4.788;2023-05-24T05:28:58;102457.72;;;9.77;94.30
47220;BME280;32961;51.936;4.788;2023-05-24T05:31:26;102464.63;;;9.83;94.42
47220;BME280;32961;51.936;4.788;2023-05-24T05:33:53;102474.09;;;9.90;94.40
47220;BME280;32961;51.936;4.788;2023-05-24T05:36:21;102478.06;;;9.99;94.87
47220;BME280;32961;51.936;4.788;2023-05-24T05:38:49;102475.78;;;10.05;95.31
47220;BME280;32961;51.936;4.788;2023-05-24T05:41:17;102472.38;;;10.16;95.15
47220;BME280;32961;51.936;4.788;2023-05-24T05:43:46;102471.78;;;10.25;95.21
47220;BME280;32961;51.936;4.788;2023-05-24T05:46:14;102469.41;;;10.34;94.71
47220;BME280;32961;51.936;4.788;2023-05-24T05:48:42;102475.34;;;10.40;94.40
47220;BME280;32961;51.936;4.788;2023-05-24T05:51:12;102475.88;;;10.46;94.30
47220;BME280;32961;51.936;4.788;2023-05-24T05:53:40;102470.16;;;10.50;94.31
47220;BME280;32961;51.936;4.788;2023-05-24T05:56:10;102472.81;;;10.65;94.63
47220;BME280;32961;51.936;4.788;2023-05-24T05:58:38;102480.66;;;10.82;94.23
47220;BME280;32961;51.936;4.788;2023-05-24T06:01:07;102476.00;;;10.84;94.52
47220;BME280;32961;51.936;4.788;2023-05-24T06:03:35;102488.41;;;11.01;94.12
47220;BME280;32961;51.936;4.788;2023-05-24T06:06:04;102491.78;;;11.18;93.64
47220;BME280;32961;51.936;4.788;2023-05-24T06:08:31;102492.66;;;11.31;93.22
47220;BME280;32961;51.936;4.788;2023-05-24T06:11:01;102489.50;;;11.37;92.96
47220;BME280;32961;51.936;4.788;2023-05-24T06:13:28;102476.44;;;11.43;92.14
47220;BME280;32961;51.936;4.788;2023-05-24T06:15:56;102486.88;;;11.49;90.27
47220;BME280;32961;51.936;4.788;2023-05-24T06:18:26;102486.69;;;11.52;90.04
47220;BME280;32961;51.936;4.788;2023-05-24T06:20:56;102487.13;;;11.46;87.51
47220;BME280;32961;51.936;4.788;2023-05-24T06:23:23;102486.88;;;11.49;86.92
47220;BME280;32961;51.936;4.788;2023-05-24T06:25:52;102495.94;;;11.49;87.22
47220;BME280;32961;51.936;4.788;2023-05-24T06:28:20;102492.22;;;11.63;87.23
47220;BME280;32961;51.936;4.788;2023-05-24T06:30:48;102498.84;;;11.72;87.03
47220;BME280;32961;51.936;4.788;2023-05-24T06:33:16;102501.47;;;11.74;85.09
47220;BME280;32961;51.936;4.788;2023-05-24T06:35:46;102505.63;;;11.66;84.94
47220;BME280;32961;51.936;4.788;2023-05-24T06:38:13;102506.56;;;11.78;85.74
47220;BME280;32961;51.936;4.788;2023-05-24T06:40:41;102507.19;;;11.82;84.99
47220;BME280;32961;51.936;4.788;2023-05-24T06:43:09;102509.38;;;11.90;84.65
47220;BME280;32961;51.936;4.788;2023-05-24T06:45:37;102505.44;;;11.94;84.84
47220;BME280;32961;51.936;4.788;2023-05-24T06:48:05;102500.00;;;12.07;84.19
47220;BME280;32961;51.936;4.788;2023-05-24T06:50:33;102500.41;;;12.13;83.02
47220;BME280;32961;51.936;4.788;2023-05-24T06:53:03;102485.34;;;12.20;82.94
47220;BME280;32961;51.936;4.788;2023-05-24T06:55:31;102497.41;;;12.29;83.09
47220;BME280;32961;51.936;4.788;2023-05-24T06:57:59;102495.38;;;12.44;82.83
47220;BME280;32961;51.936;4.788;2023-05-24T07:00:27;102495.38;;;12.44;80.39
47220;BME280;32961;51.936;4.788;2023-05-24T07:02:55;102492.06;;;12.52;80.33
47220;BME280;32961;51.936;4.788;2023-05-24T07:05:23;102488.97;;;12.57;79.27
47220;BME280;32961;51.936;4.788;2023-05-24T07:07:51;102487.44;;;12.65;79.17
47220;BME280;32961;51.936;4.788;2023-05-24T07:10:20;102484.59;;;12.78;78.33
47220;BME280;32961;51.936;4.788;2023-05-24T07:12:48;102485.38;;;12.80;77.03
47220;BME280;32961;51.936;4.788;2023-05-24T07:15:16;102486.63;;;12.88;76.56
47220;BME280;32961;51.936;4.788;2023-05-24T07:17:44;102480.91;;;12.79;76.06
47220;BME280;32961;51.936;4.788;2023-05-24T07:20:12;102491.06;;;12.89;75.99
47220;BME280;32961;51.936;4.788;2023-05-24T07:22:40;102496.94;;;12.95;76.45
47220;BME280;32961;51.936;4.788;2023-05-24T07:25:09;102502.41;;;13.07;75.41
47220;BME280;32961;51.936;4.788;2023-05-24T07:27:38;102508.91;;;13.17;75.81
47220;BME280;32961;51.936;4.788;2023-05-24T07:30:07;102501.06;;;13.12;73.94
47220;BME280;32961;51.936;4.788;2023-05-24T07:32:55;102498.97;;;13.16;73.49
47220;BME280;32961;51.936;4.788;2023-05-24T07:35:23;102510.88;;;13.26;74.52
47220;BME280;32961;51.936;4.788;2023-05-24T07:37:51;102514.66;;;13.37;74.06
47220;BME280;32961;51.936;4.788;2023-05-24T07:40:19;102505.25;;;13.52;73.72
47220;BME280;32961;51.936;4.788;2023-05-24T07:42:50;102510.84;;;13.62;73.75
47220;BME280;32961;51.936;4.788;2023-05-24T07:45:18;102504.63;;;13.71;72.99
47220;BME280;32961;51.936;4.788;2023-05-24T07:47:46;102506.22;;;13.85;71.37
47220;BME280;32961;51.936;4.788;2023-05-24T07:50:14;102496.41;;;13.94;71.64
47220;BME280;32961;51.936;4.788;2023-05-24T07:52:42;102500.84;;;14.18;70.75
47220;BME280;32961;51.936;4.788;2023-05-24T07:55:10;102499.22;;;14.26;69.40
47220;BME280;32961;51.936;4.788;2023-05-24T07:57:38;102498.34;;;14.26;67.46
47220;BME280;32961;51.936;4.788;2023-05-24T08:00:09;102503.19;;;14.22;67.74
47220;BME280;32961;51.936;4.788;2023-05-24T08:02:43;102506.19;;;14.19;68.62
47220;BME280;32961;51.936;4.788;2023-05-24T08:05:12;102495.81;;;14.34;69.16
47220;BME280;32961;51.936;4.788;2023-05-24T08:07:40;102499.44;;;14.35;68.11
47220;BME280;32961;51.936;4.788;2023-05-24T08:10:09;102496.72;;;14.35;67.04
47220;BME280;32961;51.936;4.788;2023-05-24T08:12:38;102492.53;;;14.52;67.65
47220;BME280;32961;51.936;4.788;2023-05-24T08:15:11;102497.63;;;14.68;64.43
47220;BME280;32961;51.936;4.788;2023-05-24T08:17:38;102496.19;;;15.06;65.23
47220;BME280;32961;51.936;4.788;2023-05-24T08:20:08;102483.16;;;15.19;63.35
47220;BME280;32961;51.936;4.788;2023-05-24T08:22:39;102495.63;;;15.33;62.38
47220;BME280;32961;51.936;4.788;2023-05-24T08:25:08;102494.22;;;15.39;61.17
47220;BME280;32961;51.936;4.788;2023-05-24T08:27:36;102487.50;;;15.22;61.55
47220;BME280;32961;51.936;4.788;2023-05-24T08:30:06;102482.78;;;15.34;62.58
47220;BME280;32961;51.936;4.788;2023-05-24T08:32:35;102483.59;;;15.55;62.42
47220;BME280;32961;51.936;4.788;2023-05-24T08:35:04;102479.72;;;15.58;61.79
47220;BME280;32961;51.936;4.788;2023-05-24T08:37:46;102476.75;;;15.71;61.25
47220;BME280;32961;51.936;4.788;2023-05-24T08:40:15;102475.13;;;15.90;59.67
47220;BME280;32961;51.936;4.788;2023-05-24T08:42:44;102491.97;;;15.85;58.32
47220;BME280;32961;51.936;4.788;2023-05-24T08:45:14;102490.88;;;16.07;57.08
47220;BME280;32961;51.936;4.788;2023-05-24T08:47:43;102491.78;;;16.08;55.72
47220;BME280;32961;51.936;4.788;2023-05-24T08:50:13;102483.97;;;16.03;55.93
47220;BME280;32961;51.936;4.788;2023-05-24T08:52:44;102481.91;;;15.85;56.19
47220;BME280;32961;51.936;4.788;2023-05-24T08:55:14;102483.84;;;15.73;56.90
47220;BME280;32961;51.936;4.788;2023-05-24T08:57:43;102487.38;;;15.85;57.34
47220;BME280;32961;51.936;4.788;2023-05-24T09:00:13;102490.38;;;15.82;57.39
47220;BME280;32961;51.936;4.788;2023-05-24T09:02:42;102482.78;;;15.96;57.36
47220;BME280;32961;51.936;4.788;2023-05-24T09:05:13;102487.91;;;16.30;56.79
47220;BME280;32961;51.936;4.788;2023-05-24T09:07:44;102486.63;;;16.53;55.17
47220;BME280;32961;51.936;4.788;2023-05-24T09:10:12;102477.97;;;16.48;54.76
47220;BME280;32961;51.936;4.788;2023-05-24T09:12:44;102481.72;;;16.77;54.54
47220;BME280;32961;51.936;4.788;2023-05-24T09:15:12;102483.03;;;16.92;53.70
47220;BME280;32961;51.936;4.788;2023-05-24T09:17:39;102476.06;;;17.08;53.91
47220;BME280;32961;51.936;4.788;2023-05-24T09:20:11;102492.66;;;17.26;51.97
47220;BME280;32961;51.936;4.788;2023-05-24T09:22:41;102487.25;;;17.44;51.56
47220;BME280;32961;51.936;4.788;2023-05-24T09:25:12;102487.44;;;17.23;50.84
47220;BME280;32961;51.936;4.788;2023-05-24T09:27:42;102481.97;;;17.13;49.92
47220;BME280;32961;51.936;4.788;2023-05-24T09:30:14;102477.84;;;17.46;51.57
47220;BME280;32961;51.936;4.788;2023-05-24T09:32:53;102482.94;;;17.41;49.96
47220;BME280;32961;51.936;4.788;2023-05-24T09:35:23;102482.97;;;17.22;51.12
47220;BME280;32961;51.936;4.788;2023-05-24T09:37:53;102478.94;;;17.16;50.34
47220;BME280;32961;51.936;4.788;2023-05-24T09:40:23;102479.94;;;17.15;50.71
47220;BME280;32961;51.936;4.788;2023-05-24T09:43:04;102470.88;;;17.42;49.57
47220;BME280;32961;51.936;4.788;2023-05-24T09:45:39;102467.16;;;17.33;48.94
47220;BME280;32961;51.936;4.788;2023-05-24T09:48:10;102462.47;;;17.54;49.56
47220;BME280;32961;51.936;4.788;2023-05-24T09:50:39;102458.91;;;17.71;48.40
47220;BME280;32961;51.936;4.788;2023-05-24T09:53:08;102457.03;;;17.72;49.71
47220;BME280;32961;51.936;4.788;2023-05-24T09:55:36;102442.56;;;17.98;49.00
47220;BME280;32961;51.936;4.788;2023-05-24T09:58:05;102448.75;;;18.27;48.07
47220;BME280;32961;51.936;4.788;2023-05-24T10:00:37;102453.47;;;18.53;47.42
47220;BME280;32961;51.936;4.788;2023-05-24T10:03:06;102456.16;;;18.45;45.82
47220;BME280;32961;51.936;4.788;2023-05-24T10:05:37;102449.63;;;18.64;47.36
47220;BME280;32961;51.936;4.788;2023-05-24T10:08:07;102451.81;;;18.42;45.26
47220;BME280;32961;51.936;4.788;2023-05-24T10:10:37;102454.81;;;18.31;47.20
47220;BME280;32961;51.936;4.788;2023-05-24T10:13:04;102450.88;;;18.16;47.90
47220;BME280;32961;51.936;4.788;2023-05-24T10:15:33;102450.41;;;18.38;47.20
47220;BME280;32961;51.936;4.788;2023-05-24T10:18:01;102451.56;;;18.54;45.97
47220;BME280;32961;51.936;4.788;2023-05-24T10:20:37;102437.22;;;18.42;45.38
47220;BME280;32961;51.936;4.788;2023-05-24T10:23:09;102443.66;;;18.51;46.49
47220;BME280;32961;51.936;4.788;2023-05-24T10:25:40;102439.06;;;18.41;47.34
47220;BME280;32961;51.936;4.788;2023-05-24T10:28:12;102441.66;;;17.79;46.78
47220;BME280;32961;51.936;4.788;2023-05-24T10:30:47;102449.72;;;17.62;47.78
47220;BME280;32961;51.936;4.788;2023-05-24T10:33:21;102455.66;;;17.58;47.20
47220;BME280;32961;51.936;4.788;2023-05-24T10:35:50;102458.75;;;17.73;47.29
47220;BME280;32961;51.936;4.788;2023-05-24T10:38:21;102447.97;;;17.61;45.15
47220;BME280;32961;51.936;4.788;2023-05-24T10:40:50;102454.38;;;17.80;47.43
47220;BME280;32961;51.936;4.788;2023-05-24T10:43:18;102455.78;;;17.94;47.45
47220;BME280;32961;51.936;4.788;2023-05-24T10:45:49;102444.25;;;18.08;46.06
47220;BME280;32961;51.936;4.788;2023-05-24T10:48:34;102448.13;;;18.16;44.84
47220;BME280;32961;51.936;4.788;2023-05-24T10:51:30;102445.91;;;17.91;46.04
47220;BME280;32961;51.936;4.788;2023-05-24T10:54:12;102445.56;;;17.76;46.38
47220;BME280;32961;51.936;4.788;2023-05-24T10:56:41;102438.69;;;18.00;46.60
47220;BME280;32961;51.936;4.788;2023-05-24T10:59:22;102439.78;;;17.79;47.26
47220;BME280;32961;51.936;4.788;2023-05-24T11:01:54;102436.41;;;17.86;47.66
47220;BME280;32961;51.936;4.788;2023-05-24T11:04:23;102441.00;;;17.67;46.14
47220;BME280;32961;51.936;4.788;2023-05-24T11:06:55;102442.31;;;17.63;46.55
47220;BME280;32961;51.936;4.788;2023-05-24T11:09:25;102440.41;;;17.36;47.16
47220;BME280;32961;51.936;4.788;2023-05-24T11:11:54;102441.22;;;17.46;48.04
47220;BME280;32961;51.936;4.788;2023-05-24T11:14:26;102439.66;;;17.43;47.65
47220;BME280;32961;51.936;4.788;2023-05-24T11:16:56;102444.63;;;17.30;47.23
47220;BME280;32961;51.936;4.788;2023-05-24T11:19:30;102443.84;;;17.00;48.21
47220;BME280;32961;51.936;4.788;2023-05-24T11:22:00;102440.31;;;17.17;47.96
47220;BME280;32961;51.936;4.788;2023-05-24T11:24:31;102455.94;;;17.27;48.03
47220;BME280;32961;51.936;4.788;2023-05-24T11:27:00;102443.41;;;17.42;48.20
47220;BME280;32961;51.936;4.788;2023-05-24T11:29:29;102443.66;;;17.59;47.33
47220;BME280;32961;51.936;4.788;2023-05-24T11:31:59;102448.66;;;17.36;47.18
47220;BME280;32961;51.936;4.788;2023-05-24T11:34:31;102446.50;;;17.29;47.69
47220;BME280;32961;51.936;4.788;2023-05-24T11:37:00;102454.34;;;17.24;48.04
47220;BME280;32961;51.936;4.788;2023-05-24T11:39:31;102452.44;;;17.25;48.51
47220;BME280;32961;51.936;4.788;2023-05-24T11:42:00;102451.31;;;17.17;47.80
47220;BME280;32961;51.936;4.788;2023-05-24T11:44:29;102447.56;;;17.19;48.21
47220;BME280;32961;51.936;4.788;2023-05-24T11:47:00;102442.47;;;17.24;48.60
47220;BME280;32961;51.936;4.788;2023-05-24T11:49:28;102437.47;;;17.47;48.10
47220;BME280;32961;51.936;4.788;2023-05-24T11:51:58;102443.94;;;17.56;48.73
47220;BME280;32961;51.936;4.788;2023-05-24T11:54:26;102440.78;;;17.51;48.51
47220;BME280;32961;51.936;4.788;2023-05-24T11:56:56;102448.28;;;17.58;47.36
47220;BME280;32961;51.936;4.788;2023-05-24T11:59:26;102439.72;;;17.61;47.49
47220;BME280;32961;51.936;4.788;2023-05-24T12:01:57;102439.97;;;17.40;47.97
47220;BME280;32961;51.936;4.788;2023-05-24T12:04:28;102441.47;;;17.62;47.46
47220;BME280;32961;51.936;4.788;2023-05-24T12:06:56;102436.06;;;17.43;47.38
47220;BME280;32961;51.936;4.788;2023-05-24T12:09:26;102442.03;;;17.66;47.31
47220;BME280;32961;51.936;4.788;2023-05-24T12:11:55;102444.44;;;17.69;48.05
47220;BME280;32961;51.936;4.788;2023-05-24T12:14:27;102437.09;;;17.88;47.40
47220;BME280;32961;51.936;4.788;2023-05-24T12:16:56;102440.19;;;18.12;47.78
47220;BME280;32961;51.936;4.788;2023-05-24T12:19:29;102434.13;;;18.27;47.75
47220;BME280;32961;51.936;4.788;2023-05-24T12:22:03;102435.69;;;18.11;45.63
47220;BME280;32961;51.936;4.788;2023-05-24T12:24:32;102432.50;;;17.60;48.05
47220;BME280;32961;51.936;4.788;2023-05-24T12:27:03;102440.75;;;17.60;47.88
47220;BME280;32961;51.936;4.788;2023-05-24T12:29:34;102431.53;;;17.52;47.56
47220;BME280;32961;51.936;4.788;2023-05-24T12:32:03;102426.16;;;17.60;47.33
47220;BME280;32961;51.936;4.788;2023-05-24T12:34:32;102428.06;;;17.49;48.35
47220;BME280;32961;51.936;4.788;2023-05-24T12:37:01;102428.56;;;17.35;49.12
47220;BME280;32961;51.936;4.788;2023-05-24T12:39:29;102432.00;;;17.09;48.67
47220;BME280;32961;51.936;4.788;2023-05-24T12:42:02;102426.91;;;17.14;49.04
47220;BME280;32961;51.936;4.788;2023-05-24T12:44:33;102431.59;;;17.32;49.92
47220;BME280;32961;51.936;4.788;2023-05-24T12:47:03;102434.06;;;17.35;48.92
47220;BME280;32961;51.936;4.788;2023-05-24T12:49:33;102428.94;;;17.50;49.43
47220;BME280;32961;51.936;4.788;2023-05-24T12:52:01;102426.22;;;17.68;49.28
47220;BME280;32961;51.936;4.788;2023-05-24T12:54:29;102431.03;;;17.66;49.07
47220;BME280;32961;51.936;4.788;2023-05-24T12:56:58;102428.06;;;17.49;49.80
47220;BME280;32961;51.936;4.788;2023-05-24T12:59:29;102439.78;;;17.04;49.83
47220;BME280;32961;51.936;4.788;2023-05-24T13:01:58;102430.69;;;17.04;50.00
47220;BME280;32961;51.936;4.788;2023-05-24T13:04:26;102440.75;;;17.23;50.38
47220;BME280;32961;51.936;4.788;2023-05-24T13:06:57;102429.44;;;17.36;49.99